createdAt,value
2022-12-12T00:00:42.325Z,45.3
2022-12-12T00:01:56.447Z,45.4
2022-12-12T00:02:59.598Z,45.4
2022-12-12T00:04:13.485Z,45.4
2022-12-12T00:05:26.327Z,45.3
2022-12-12T00:06:29.977Z,45.3
2022-12-12T00:07:42.789Z,45.3
2022-12-12T00:08:56.487Z,45.4
2022-12-12T00:09:59.309Z,45.3
2022-12-12T00:11:12.960Z,45.3
2022-12-12T00:12:25.761Z,45.3
2022-12-12T00:13:29.985Z,45.3
2022-12-12T00:14:42.815Z,45.3
2022-12-12T00:15:56.519Z,45.3
2022-12-12T00:16:59.441Z,45.3
2022-12-12T00:18:12.954Z,45.3
2022-12-12T00:19:25.845Z,45.4
2022-12-12T00:20:39.500Z,45.4
2022-12-12T00:21:52.390Z,45.4
2022-12-12T00:22:55.949Z,45.4
2022-12-12T00:24:09.403Z,45.3
2022-12-12T00:25:13.388Z,45.4
2022-12-12T00:26:26.433Z,45.3
2022-12-12T00:27:40.042Z,45.3
2022-12-12T00:28:43.443Z,45.3
2022-12-12T00:29:57.468Z,45.2
2022-12-12T00:31:10.629Z,45.2
2022-12-12T00:32:14.456Z,45.3
2022-12-12T00:33:27.274Z,45.3
2022-12-12T00:34:50.975Z,45.2
2022-12-12T00:35:43.875Z,45.3
2022-12-12T00:36:58.005Z,45.2
2022-12-12T00:38:10.837Z,45.2
2022-12-12T00:39:18.294Z,45.2
2022-12-12T00:40:35.725Z,45.2
2022-12-12T00:41:38.531Z,45.2
2022-12-12T00:42:52.166Z,45.1
2022-12-12T00:43:55.198Z,45.2
2022-12-12T00:45:08.660Z,45.1
2022-12-12T00:46:21.574Z,45.1
2022-12-12T00:47:35.165Z,45.1
2022-12-12T00:48:38.028Z,45.1
2022-12-12T00:49:51.686Z,45.2
2022-12-12T00:51:04.498Z,45.1
2022-12-12T00:52:08.684Z,45.1
2022-12-12T00:53:21.526Z,45.2
2022-12-12T00:54:35.131Z,45.1
2022-12-12T00:55:37.992Z,45.1
2022-12-12T00:56:51.676Z,45.1
2022-12-12T00:58:04.608Z,45.2
2022-12-12T00:59:08.182Z,45.2
2022-12-12T01:00:21.210Z,45.1
2022-12-12T01:01:34.786Z,45.2
2022-12-12T01:02:37.845Z,45.2
2022-12-12T01:03:51.656Z,45.2
2022-12-12T01:05:04.475Z,45.1
2022-12-12T01:06:19.657Z,45.1
2022-12-12T01:07:22.599Z,45.2
2022-12-12T01:08:36.140Z,45.1
2022-12-12T01:09:49.048Z,45.1
2022-12-12T01:10:52.680Z,45.1
2022-12-12T01:12:05.495Z,45.2
2022-12-12T01:13:09.156Z,45.1
2022-12-12T01:14:31.982Z,45.1
2022-12-12T01:15:37.191Z,45.1
2022-12-12T01:16:40.031Z,45.1
2022-12-12T01:17:53.683Z,45.1
2022-12-12T01:19:06.547Z,45.1
2022-12-12T01:20:10.199Z,45.1
2022-12-12T01:21:23.001Z,45.0
2022-12-12T01:22:36.651Z,45.0
2022-12-12T01:23:39.688Z,45.0
2022-12-12T01:24:53.680Z,45.1
2022-12-12T01:26:06.489Z,45.1
2022-12-12T01:27:10.186Z,45.0
2022-12-12T01:28:22.995Z,45.0
2022-12-12T01:29:37.147Z,45.0
2022-12-12T01:30:59.962Z,45.0
2022-12-12T01:32:03.683Z,45.0
2022-12-12T01:33:06.699Z,45.0
2022-12-12T01:34:20.153Z,44.9
2022-12-12T01:35:23.087Z,45.0
2022-12-12T01:36:37.230Z,44.9
2022-12-12T01:37:50.057Z,44.9
2022-12-12T01:38:53.734Z,44.8
2022-12-12T01:40:06.635Z,44.8
2022-12-12T01:41:21.178Z,44.8
2022-12-12T01:42:24.165Z,44.8
2022-12-12T01:43:37.694Z,44.9
2022-12-12T01:44:50.508Z,44.8
2022-12-12T01:45:54.216Z,44.8
2022-12-12T01:47:07.193Z,44.9
2022-12-12T01:49:01.193Z,44.8
2022-12-12T01:49:34.187Z,44.9
2022-12-12T01:50:37.113Z,44.9
2022-12-12T01:51:50.687Z,44.8
2022-12-12T01:52:53.512Z,44.8
2022-12-12T01:54:07.233Z,44.8
2022-12-12T01:55:20.045Z,44.8
2022-12-12T01:56:33.639Z,44.7
2022-12-12T01:57:36.648Z,44.7
2022-12-12T01:58:50.205Z,44.8
2022-12-12T02:00:03.189Z,44.7
2022-12-12T02:01:06.701Z,44.8
2022-12-12T02:02:19.721Z,44.8
2022-12-12T02:03:33.673Z,44.8
2022-12-12T02:04:36.597Z,44.8
2022-12-12T02:05:50.685Z,44.8
2022-12-12T02:07:03.536Z,44.8
2022-12-12T02:08:07.189Z,44.8
2022-12-12T02:09:20.089Z,44.8
2022-12-12T02:10:33.660Z,44.8
2022-12-12T02:11:37.195Z,44.8
2022-12-12T02:12:51.157Z,44.8
2022-12-12T02:14:03.961Z,44.8
2022-12-12T02:15:07.692Z,44.8
2022-12-12T02:16:20.462Z,44.8
2022-12-12T02:17:34.156Z,44.8
2022-12-12T02:18:47.034Z,44.8
2022-12-12T02:19:50.649Z,44.8
2022-12-12T02:21:03.462Z,44.8
2022-12-12T02:22:17.195Z,44.8
2022-12-12T02:23:20.137Z,44.8
2022-12-12T02:24:33.683Z,44.8
2022-12-12T02:25:46.532Z,44.8
2022-12-12T02:26:50.221Z,44.8
2022-12-12T02:28:04.069Z,44.8
2022-12-12T02:29:37.705Z,44.8
2022-12-12T02:30:21.673Z,44.8
2022-12-12T02:31:34.549Z,44.8
2022-12-12T02:32:48.164Z,44.8
2022-12-12T02:33:51.139Z,44.7
2022-12-12T02:35:07.232Z,44.8
2022-12-12T02:36:20.042Z,44.7
2022-12-12T02:37:23.692Z,44.7
2022-12-12T02:38:36.625Z,44.7
2022-12-12T02:39:50.350Z,44.7
2022-12-12T02:40:53.180Z,44.7
2022-12-12T02:42:06.687Z,44.7
2022-12-12T02:43:19.483Z,44.7
2022-12-12T02:44:23.347Z,44.7
2022-12-12T02:45:36.174Z,44.7
2022-12-12T02:46:49.744Z,44.7
2022-12-12T02:47:52.675Z,44.7
2022-12-12T02:49:06.195Z,44.7
2022-12-12T02:50:19.019Z,44.7
2022-12-12T02:51:33.207Z,44.7
2022-12-12T02:52:36.085Z,44.7
2022-12-12T02:53:49.669Z,44.7
2022-12-12T02:55:02.535Z,44.7
2022-12-12T02:56:26.227Z,44.7
2022-12-12T02:57:19.139Z,44.7
2022-12-12T02:58:32.862Z,44.7
2022-12-12T02:59:35.737Z,44.7
2022-12-12T03:00:49.691Z,44.6
2022-12-12T03:02:02.629Z,44.7
2022-12-12T03:03:06.662Z,44.6
2022-12-12T03:04:19.458Z,44.6
2022-12-12T03:05:43.160Z,44.6
2022-12-12T03:06:39.372Z,44.6
2022-12-12T03:07:54.747Z,44.6
2022-12-12T03:08:57.633Z,44.6
2022-12-12T03:10:11.874Z,44.6
2022-12-12T03:11:24.863Z,44.5
2022-12-12T03:12:28.703Z,44.6
2022-12-12T03:13:51.528Z,44.5
2022-12-12T03:14:55.178Z,44.6
2022-12-12T03:16:28.035Z,44.6
2022-12-12T03:17:11.690Z,44.6
2022-12-12T03:18:24.504Z,44.6
2022-12-12T03:19:28.199Z,44.5
2022-12-12T03:20:41.023Z,44.5
2022-12-12T03:21:54.726Z,44.4
2022-12-12T03:23:17.525Z,44.4
2022-12-12T03:24:11.215Z,44.4
2022-12-12T03:25:24.036Z,44.4
2022-12-12T03:26:38.207Z,44.4
2022-12-12T03:27:41.073Z,44.4
2022-12-12T03:28:54.693Z,44.4
2022-12-12T03:30:07.485Z,44.5
2022-12-12T03:31:11.248Z,44.4
2022-12-12T03:32:24.206Z,44.4
2022-12-12T03:33:37.810Z,44.4
2022-12-12T03:34:40.677Z,44.5
2022-12-12T03:35:54.212Z,44.5
2022-12-12T03:37:07.329Z,44.5
2022-12-12T03:38:21.180Z,44.5
2022-12-12T03:39:24.027Z,44.5
2022-12-12T03:40:37.715Z,44.5
2022-12-12T03:41:50.526Z,44.5
2022-12-12T03:42:54.184Z,44.5
2022-12-12T03:44:07.077Z,44.5
2022-12-12T03:45:20.714Z,44.5
2022-12-12T03:46:43.738Z,44.5
2022-12-12T03:47:37.686Z,44.5
2022-12-12T03:48:50.444Z,44.5
2022-12-12T03:49:54.302Z,44.5
2022-12-12T03:51:07.109Z,44.5
2022-12-12T03:52:20.668Z,44.5
2022-12-12T03:53:23.618Z,44.5
2022-12-12T03:54:37.219Z,44.5
2022-12-12T03:55:50.053Z,44.5
2022-12-12T03:56:54.163Z,44.5
2022-12-12T03:58:06.849Z,44.4
2022-12-12T03:59:26.941Z,44.5
2022-12-12T04:00:30.170Z,44.5
2022-12-12T04:01:33.758Z,44.5
2022-12-12T04:02:46.706Z,44.5
2022-12-12T04:04:00.344Z,44.4
2022-12-12T04:05:14.503Z,44.5
2022-12-12T04:06:18.692Z,44.5
2022-12-12T04:07:31.591Z,44.5
2022-12-12T04:08:35.180Z,44.5
2022-12-12T04:09:47.992Z,44.5
2022-12-12T04:11:02.704Z,44.5
2022-12-12T04:12:05.618Z,44.5
2022-12-12T04:13:19.198Z,44.5
2022-12-12T04:14:32.034Z,44.5
2022-12-12T04:15:35.759Z,44.5
2022-12-12T04:16:48.680Z,44.5
2022-12-12T04:18:02.273Z,44.5
2022-12-12T04:19:05.148Z,44.5
2022-12-12T04:20:28.739Z,44.4
2022-12-12T04:21:31.684Z,44.5
2022-12-12T04:22:35.201Z,44.5
2022-12-12T04:23:47.834Z,44.5
2022-12-12T04:25:01.295Z,44.5
2022-12-12T04:26:14.106Z,44.5
2022-12-12T04:27:27.745Z,44.4
2022-12-12T04:28:30.767Z,44.4
2022-12-12T04:29:44.219Z,44.4
2022-12-12T04:30:46.991Z,44.4
2022-12-12T04:32:11.023Z,44.4
2022-12-12T04:33:14.052Z,44.5
2022-12-12T04:34:18.272Z,44.4
2022-12-12T04:35:31.093Z,44.4
2022-12-12T04:36:45.221Z,44.4
2022-12-12T04:37:48.172Z,44.4
2022-12-12T04:39:01.690Z,44.4
2022-12-12T04:40:14.626Z,44.4
2022-12-12T04:41:58.172Z,44.4
2022-12-12T04:42:31.144Z,44.5
2022-12-12T04:43:43.964Z,44.6
2022-12-12T04:44:57.737Z,44.6
2022-12-12T04:46:00.727Z,44.5
2022-12-12T04:47:14.717Z,44.4
2022-12-12T04:48:27.523Z,44.4
2022-12-12T04:49:31.374Z,44.3
2022-12-12T04:50:44.170Z,44.3
2022-12-12T04:51:57.704Z,44.3
2022-12-12T04:53:00.891Z,44.3
2022-12-12T04:54:14.811Z,44.3
2022-12-12T04:55:27.713Z,44.3
2022-12-12T04:56:31.219Z,44.2
2022-12-12T04:57:44.058Z,44.3
2022-12-12T04:58:57.680Z,44.3
2022-12-12T05:00:00.625Z,44.2
2022-12-12T05:01:14.266Z,44.2
2022-12-12T05:02:27.298Z,44.2
2022-12-12T05:03:31.214Z,44.2
2022-12-12T05:04:44.031Z,44.2
2022-12-12T05:05:57.700Z,44.3
2022-12-12T05:07:00.580Z,44.3
2022-12-12T05:08:14.284Z,44.2
2022-12-12T05:09:37.167Z,44.2
2022-12-12T05:10:40.732Z,44.2
2022-12-12T05:11:43.573Z,44.2
2022-12-12T05:12:57.214Z,44.2
2022-12-12T05:14:10.012Z,44.2
2022-12-12T05:15:14.003Z,44.2
2022-12-12T05:16:27.084Z,44.1
2022-12-12T05:17:40.718Z,44.2
2022-12-12T05:18:43.575Z,44.2
2022-12-12T05:19:57.216Z,44.1
2022-12-12T05:21:10.063Z,44.1
2022-12-12T05:22:24.214Z,44.2
2022-12-12T05:23:33.000Z,44.2
2022-12-12T05:24:39.742Z,44.2
2022-12-12T05:25:52.578Z,44.2
2022-12-12T05:26:57.742Z,44.3
2022-12-12T05:28:10.614Z,44.3
2022-12-12T05:29:24.215Z,44.4
2022-12-12T05:30:27.212Z,44.4
2022-12-12T05:31:41.233Z,44.5
2022-12-12T05:32:54.076Z,44.5
2022-12-12T05:34:18.240Z,44.6
2022-12-12T05:35:12.391Z,44.6
2022-12-12T05:36:26.205Z,44.6
2022-12-12T05:37:29.125Z,44.6
2022-12-12T05:38:42.711Z,44.6
2022-12-12T05:39:55.570Z,44.6
2022-12-12T05:41:09.733Z,44.7
2022-12-12T05:42:13.291Z,44.7
2022-12-12T05:43:27.204Z,44.7
2022-12-12T05:44:30.094Z,44.7
2022-12-12T05:45:43.746Z,44.7
2022-12-12T05:46:56.656Z,44.8
2022-12-12T05:48:00.248Z,44.9
2022-12-12T05:49:13.123Z,45.0
2022-12-12T05:50:26.690Z,44.9
2022-12-12T05:51:39.578Z,45.0
2022-12-12T05:52:43.253Z,45.0
2022-12-12T05:53:56.175Z,45.1
2022-12-12T05:55:11.481Z,45.0
2022-12-12T05:56:14.605Z,45.1
2022-12-12T05:57:28.730Z,45.1
2022-12-12T05:58:31.591Z,45.1
2022-12-12T05:59:45.228Z,45.1
2022-12-12T06:01:03.015Z,45.1
2022-12-12T06:02:07.297Z,45.1
2022-12-12T06:03:20.392Z,45.1
2022-12-12T06:04:26.812Z,45.1
2022-12-12T06:05:39.751Z,45.2
2022-12-12T06:06:43.355Z,45.1
2022-12-12T06:07:56.364Z,45.5
2022-12-12T06:09:10.207Z,45.7
2022-12-12T06:10:13.062Z,45.7
2022-12-12T06:11:26.700Z,45.6
2022-12-12T06:12:39.603Z,45.6
2022-12-12T06:14:03.219Z,45.6
2022-12-12T06:14:56.119Z,45.6
2022-12-12T06:16:09.925Z,45.6
2022-12-12T06:17:22.798Z,45.5
2022-12-12T06:18:26.275Z,45.5
2022-12-12T06:19:49.185Z,45.5
2022-12-12T06:20:52.962Z,45.5
2022-12-12T06:21:55.846Z,45.5
2022-12-12T06:23:09.714Z,45.5
2022-12-12T06:24:22.683Z,45.1
2022-12-12T06:25:26.746Z,43.9
2022-12-12T06:26:39.470Z,43.5
2022-12-12T06:27:53.234Z,42.9
2022-12-12T06:28:55.964Z,42.0
2022-12-12T06:30:09.727Z,40.7
2022-12-12T06:31:22.454Z,40.2
2022-12-12T06:32:26.206Z,40.2
2022-12-12T06:33:38.837Z,39.4
2022-12-12T06:34:52.251Z,38.4
2022-12-12T06:35:54.924Z,38.4
2022-12-12T06:37:18.738Z,37.0
2022-12-12T06:38:21.387Z,36.7
2022-12-12T06:39:24.716Z,36.5
2022-12-12T06:40:37.333Z,36.4
2022-12-12T06:41:51.370Z,36.6
2022-12-12T06:43:04.121Z,37.1
2022-12-12T06:44:07.718Z,37.7
2022-12-12T06:45:20.268Z,36.5
2022-12-12T06:46:33.801Z,35.3
2022-12-12T06:47:36.561Z,34.7
2022-12-12T06:48:50.244Z,35.2
2022-12-12T06:50:02.994Z,34.7
2022-12-12T06:51:06.745Z,34.3
2022-12-12T06:52:19.259Z,34.1
2022-12-12T06:53:32.742Z,34.4
2022-12-12T06:54:35.393Z,34.6
2022-12-12T06:55:48.761Z,34.5
2022-12-12T06:57:01.298Z,34.5
2022-12-12T06:58:14.728Z,34.6
2022-12-12T06:59:17.353Z,34.7
2022-12-12T07:00:30.750Z,34.7
2022-12-12T07:01:43.397Z,34.7
2022-12-12T07:02:47.282Z,34.8
2022-12-12T07:03:59.901Z,34.8
2022-12-12T07:05:13.363Z,35.0
2022-12-12T07:06:16.210Z,35.1
2022-12-12T07:07:29.771Z,35.3
2022-12-12T07:08:42.276Z,35.3
2022-12-12T07:09:55.742Z,35.3
2022-12-12T07:10:58.324Z,35.4
2022-12-12T07:12:11.722Z,35.6
2022-12-12T07:13:24.251Z,35.5
2022-12-12T07:14:27.731Z,35.6
2022-12-12T07:15:40.447Z,35.7
2022-12-12T07:16:53.730Z,35.7
2022-12-12T07:17:56.294Z,35.8
2022-12-12T07:19:09.714Z,35.8
2022-12-12T07:20:22.346Z,35.9
2022-12-12T07:21:35.990Z,35.9
2022-12-12T07:22:38.601Z,35.9
2022-12-12T07:23:52.249Z,36.0
2022-12-12T07:25:15.651Z,36.0
2022-12-12T07:26:09.287Z,36.1
2022-12-12T07:27:22.093Z,36.2
2022-12-12T07:28:35.754Z,36.2
2022-12-12T07:29:38.380Z,36.2
2022-12-12T07:30:51.867Z,36.3
2022-12-12T07:32:04.428Z,36.3
2022-12-12T07:33:08.226Z,36.3
2022-12-12T07:34:20.681Z,36.4
2022-12-12T07:35:33.725Z,36.4
2022-12-12T07:36:36.288Z,36.4
2022-12-12T07:37:52.744Z,36.5
2022-12-12T07:39:05.180Z,36.4
2022-12-12T07:40:08.756Z,36.5
2022-12-12T07:41:21.373Z,36.5
2022-12-12T07:42:34.767Z,36.6
2022-12-12T07:43:41.400Z,36.6
2022-12-12T07:44:56.742Z,36.6
2022-12-12T07:45:59.275Z,36.6
2022-12-12T07:47:12.798Z,36.6
2022-12-12T07:48:25.227Z,36.7
2022-12-12T07:49:28.731Z,36.7
2022-12-12T07:50:41.169Z,36.7
2022-12-12T07:51:54.258Z,36.8
2022-12-12T07:52:56.867Z,36.8
2022-12-12T07:54:10.272Z,36.8
2022-12-12T07:55:22.666Z,36.9
2022-12-12T07:56:35.763Z,36.9
2022-12-12T07:57:38.476Z,36.9
2022-12-12T07:58:53.257Z,36.9
2022-12-12T08:00:05.707Z,36.9
2022-12-12T08:01:14.165Z,37.0
2022-12-12T08:02:17.562Z,37.0
2022-12-12T08:03:31.243Z,37.0
2022-12-12T08:04:43.743Z,37.0
2022-12-12T08:05:57.265Z,37.1
2022-12-12T08:07:05.311Z,37.1
2022-12-12T08:08:10.285Z,37.1
2022-12-12T08:09:22.791Z,37.1
2022-12-12T08:10:36.266Z,37.2
2022-12-12T08:11:43.179Z,37.3
2022-12-12T08:12:49.765Z,37.2
2022-12-12T08:14:02.200Z,37.2
2022-12-12T08:15:15.715Z,37.4
2022-12-12T08:16:18.671Z,37.4
2022-12-12T08:17:31.778Z,37.3
2022-12-12T08:18:44.347Z,37.5
2022-12-12T08:19:58.521Z,37.4
2022-12-12T08:21:01.092Z,37.4
2022-12-12T08:22:14.887Z,37.5
2022-12-12T08:23:27.501Z,37.5
2022-12-12T08:24:31.852Z,37.5
2022-12-12T08:25:44.294Z,37.5
2022-12-12T08:26:57.822Z,37.5
2022-12-12T08:28:00.381Z,37.5
2022-12-12T08:29:13.760Z,37.5
2022-12-12T08:30:26.211Z,37.5
2022-12-12T08:31:29.789Z,37.6
2022-12-12T08:32:42.427Z,37.6
2022-12-12T08:33:55.744Z,37.6
2022-12-12T08:34:58.236Z,37.6
2022-12-12T08:36:11.289Z,37.6
2022-12-12T08:37:23.687Z,37.6
2022-12-12T08:38:36.790Z,37.7
2022-12-12T08:39:41.103Z,37.7
2022-12-12T08:40:54.774Z,37.7
2022-12-12T08:42:07.160Z,37.7
2022-12-12T08:43:10.783Z,37.7
2022-12-12T08:44:23.220Z,37.7
2022-12-12T08:45:36.371Z,37.7
2022-12-12T08:46:38.938Z,37.7
2022-12-12T08:47:52.305Z,37.8
2022-12-12T08:49:04.778Z,37.7
2022-12-12T08:50:18.272Z,37.7
2022-12-12T08:51:20.808Z,37.8
2022-12-12T08:52:43.874Z,37.8
2022-12-12T08:53:46.577Z,37.8
2022-12-12T08:54:50.262Z,37.8
2022-12-12T08:56:02.736Z,37.8
2022-12-12T08:57:16.293Z,37.9
2022-12-12T08:58:18.754Z,37.9
2022-12-12T08:59:31.829Z,37.9
2022-12-12T09:00:44.238Z,37.8
2022-12-12T09:01:58.908Z,37.9
2022-12-12T09:03:01.550Z,37.9
2022-12-12T09:04:14.774Z,37.9
2022-12-12T09:05:27.160Z,37.9
2022-12-12T09:06:30.304Z,38.0
2022-12-12T09:07:42.680Z,37.9
2022-12-12T09:08:55.777Z,37.9
2022-12-12T09:10:08.202Z,37.9
2022-12-12T09:11:11.773Z,37.9
2022-12-12T09:12:24.336Z,37.9
2022-12-12T09:13:37.854Z,37.9
2022-12-12T09:14:40.414Z,37.9
2022-12-12T09:15:53.927Z,37.9
2022-12-12T09:17:06.444Z,37.9
2022-12-12T09:18:09.781Z,38.0
2022-12-12T09:19:22.175Z,37.9
2022-12-12T09:20:35.344Z,37.9
2022-12-12T09:21:47.765Z,37.9
2022-12-12T09:22:51.303Z,37.9
2022-12-12T09:24:03.728Z,37.9
2022-12-12T09:25:17.313Z,37.8
2022-12-12T09:26:19.825Z,37.7
2022-12-12T09:27:33.318Z,37.7
2022-12-12T09:28:45.741Z,37.8
2022-12-12T09:30:00.317Z,37.7
2022-12-12T09:31:02.867Z,37.7
2022-12-12T09:32:19.951Z,37.7
2022-12-12T09:33:26.807Z,37.7
2022-12-12T09:34:30.278Z,37.7
2022-12-12T09:35:42.681Z,37.7
2022-12-12T09:36:55.780Z,37.7
2022-12-12T09:38:13.768Z,37.6
2022-12-12T09:39:17.802Z,37.6
2022-12-12T09:40:20.266Z,37.6
2022-12-12T09:41:33.344Z,37.6
2022-12-12T09:42:45.796Z,37.5
2022-12-12T09:43:58.807Z,37.5
2022-12-12T09:45:01.480Z,37.5
2022-12-12T09:46:14.842Z,37.5
2022-12-12T09:47:27.292Z,37.5
2022-12-12T09:48:31.837Z,37.5
2022-12-12T09:49:44.334Z,37.4
2022-12-12T09:50:57.828Z,37.5
2022-12-12T09:52:00.292Z,37.4
2022-12-12T09:53:13.276Z,37.3
2022-12-12T09:54:25.683Z,37.3
2022-12-12T09:55:38.795Z,37.3
2022-12-12T09:56:41.323Z,37.2
2022-12-12T09:57:54.294Z,37.1
2022-12-12T09:59:06.731Z,37.1
2022-12-12T10:00:09.777Z,37.0
2022-12-12T10:01:22.185Z,37.0
2022-12-12T10:02:35.358Z,36.9
2022-12-12T10:05:05.256Z,36.7
2022-12-12T10:06:36.121Z,36.7
2022-12-12T10:07:10.278Z,36.6
2022-12-12T10:08:22.670Z,36.6
2022-12-12T10:09:35.787Z,36.4
2022-12-12T10:10:38.211Z,36.4
2022-12-12T10:11:51.281Z,36.3
2022-12-12T10:13:03.587Z,36.2
2022-12-12T10:14:16.787Z,36.3
2022-12-12T10:15:19.165Z,36.2
2022-12-12T10:16:32.487Z,36.1
2022-12-12T10:17:44.854Z,36.1
2022-12-12T10:18:50.371Z,36.1
2022-12-12T10:20:02.681Z,36.0
2022-12-12T10:21:15.819Z,35.9
2022-12-12T10:22:21.313Z,35.9
2022-12-12T10:23:30.326Z,35.8
2022-12-12T10:24:42.616Z,35.8
2022-12-12T10:25:55.803Z,35.8
2022-12-12T10:26:58.156Z,35.7
2022-12-12T10:28:11.322Z,35.7
2022-12-12T10:29:23.622Z,35.7
2022-12-12T10:30:26.824Z,35.6
2022-12-12T10:31:39.115Z,35.5
2022-12-12T10:32:52.334Z,35.5
2022-12-12T10:34:04.630Z,35.4
2022-12-12T10:35:14.955Z,35.4
2022-12-12T10:36:20.336Z,35.3
2022-12-12T10:37:33.327Z,35.4
2022-12-12T10:38:35.667Z,35.3
2022-12-12T10:39:48.802Z,35.2
2022-12-12T10:41:01.076Z,35.2
2022-12-12T10:42:14.338Z,35.2
2022-12-12T10:43:26.654Z,35.1
2022-12-12T10:44:29.801Z,35.1
2022-12-12T10:45:42.046Z,35.1
2022-12-12T10:46:45.333Z,35.0
2022-12-12T10:47:57.684Z,35.0
2022-12-12T10:49:10.806Z,35.0
2022-12-12T10:50:22.981Z,34.9
2022-12-12T10:51:26.329Z,34.9
2022-12-12T10:52:38.546Z,34.9
2022-12-12T10:53:51.811Z,34.8
2022-12-12T10:54:54.118Z,34.8
2022-12-12T10:56:07.346Z,34.7
2022-12-12T10:57:20.629Z,34.8
2022-12-12T10:58:23.814Z,34.7
2022-12-12T10:59:35.848Z,34.7
2022-12-12T11:00:48.911Z,34.6
2022-12-12T11:02:10.100Z,34.6
2022-12-12T11:03:03.898Z,34.6
2022-12-12T11:04:16.139Z,34.5
2022-12-12T11:05:29.310Z,34.5
2022-12-12T11:06:31.658Z,34.6
2022-12-12T11:07:44.807Z,34.5
2022-12-12T11:08:57.382Z,34.5
2022-12-12T11:10:10.315Z,34.4
2022-12-12T11:11:12.702Z,34.4
2022-12-12T11:12:25.830Z,34.4
2022-12-12T11:13:37.984Z,34.3
2022-12-12T11:14:41.359Z,34.3
2022-12-12T11:15:53.583Z,34.3
2022-12-12T11:17:06.876Z,34.2
2022-12-12T11:18:09.225Z,34.3
2022-12-12T11:19:22.347Z,34.2
2022-12-12T11:20:34.519Z,34.2
2022-12-12T11:21:47.303Z,34.2
2022-12-12T11:22:59.551Z,34.2
2022-12-12T11:24:02.827Z,34.2
2022-12-12T11:25:15.380Z,34.2
2022-12-12T11:26:18.817Z,34.2
2022-12-12T11:27:30.988Z,34.2
2022-12-12T11:28:43.842Z,34.1
2022-12-12T11:29:56.081Z,34.1
2022-12-12T11:30:59.303Z,34.1
2022-12-12T11:32:11.535Z,34.1
2022-12-12T11:33:24.323Z,34.1
2022-12-12T11:34:36.558Z,34.1
2022-12-12T11:35:45.665Z,34.1
2022-12-12T11:36:49.808Z,34.1
2022-12-12T11:38:02.830Z,34.2
2022-12-12T11:39:15.038Z,34.3
2022-12-12T11:40:18.357Z,34.2
2022-12-12T11:41:30.561Z,34.2
2022-12-12T11:42:43.377Z,34.2
2022-12-12T11:43:45.750Z,34.2
2022-12-12T11:44:58.822Z,34.2
2022-12-12T11:46:11.112Z,34.3
2022-12-12T11:47:24.320Z,34.2
2022-12-12T11:48:26.657Z,34.2
2022-12-12T11:49:39.830Z,34.2
2022-12-12T11:50:52.024Z,34.2
2022-12-12T11:52:04.815Z,34.2
2022-12-12T11:53:07.150Z,34.2
2022-12-12T11:54:20.331Z,34.3
2022-12-12T11:55:32.614Z,34.2
2022-12-12T11:56:35.823Z,34.2
2022-12-12T11:57:47.947Z,34.2
2022-12-12T11:59:01.316Z,34.1
2022-12-12T12:00:03.687Z,34.1
2022-12-12T12:01:16.807Z,34.4
2022-12-12T12:02:29.001Z,34.3
2022-12-12T12:03:41.935Z,34.2
2022-12-12T12:04:48.183Z,34.2
2022-12-12T12:05:54.851Z,34.2
2022-12-12T12:07:07.031Z,34.1
2022-12-12T12:08:20.346Z,34.1
2022-12-12T12:09:22.806Z,34.1
2022-12-12T12:10:35.890Z,34.1
2022-12-12T12:11:48.044Z,34.1
2022-12-12T12:13:01.490Z,34.0
2022-12-12T12:14:03.752Z,34.0
2022-12-12T12:15:16.879Z,34.0
2022-12-12T12:16:29.024Z,34.0
2022-12-12T12:17:32.339Z,33.9
2022-12-12T12:18:44.487Z,33.9
2022-12-12T12:19:57.344Z,33.9
2022-12-12T12:21:09.480Z,33.9
2022-12-12T12:22:12.346Z,33.9
2022-12-12T12:23:24.429Z,33.9
2022-12-12T12:24:37.316Z,33.9
2022-12-12T12:25:39.604Z,33.8
2022-12-12T12:26:52.406Z,33.8
2022-12-12T12:28:04.565Z,33.8
2022-12-12T12:29:17.371Z,33.8
2022-12-12T12:30:19.573Z,33.8
2022-12-12T12:31:32.345Z,33.8
2022-12-12T12:32:44.426Z,33.8
2022-12-12T12:33:57.345Z,33.8
2022-12-12T12:34:59.590Z,33.7
2022-12-12T12:36:16.322Z,33.8
2022-12-12T12:37:21.625Z,33.7
2022-12-12T12:38:34.478Z,33.7
2022-12-12T12:39:36.792Z,33.7
2022-12-12T12:40:49.838Z,33.7
2022-12-12T12:42:01.960Z,33.7
2022-12-12T12:43:14.920Z,33.7
2022-12-12T12:44:17.334Z,33.6
2022-12-12T12:45:30.352Z,33.6
2022-12-12T12:46:42.478Z,33.5
2022-12-12T12:47:45.358Z,33.5
2022-12-12T12:48:57.449Z,33.5
2022-12-12T12:50:10.371Z,33.5
2022-12-12T12:51:22.447Z,33.6
2022-12-12T12:52:25.341Z,33.6
2022-12-12T12:53:37.499Z,33.6
2022-12-12T12:54:50.352Z,33.4
2022-12-12T12:55:52.606Z,33.2
2022-12-12T12:57:05.364Z,33.2
2022-12-12T12:58:17.478Z,33.1
2022-12-12T12:59:30.366Z,33.1
2022-12-12T13:00:32.544Z,33.2
2022-12-12T13:01:45.380Z,33.1
2022-12-12T13:02:57.669Z,33.3
2022-12-12T13:04:10.825Z,33.1
2022-12-12T13:05:13.109Z,33.1
2022-12-12T13:06:25.834Z,33.2
2022-12-12T13:07:40.890Z,33.2
2022-12-12T13:08:44.355Z,33.1
2022-12-12T13:09:56.493Z,33.0
2022-12-12T13:11:09.358Z,32.9
2022-12-12T13:12:11.605Z,32.9
2022-12-12T13:13:24.355Z,32.9
2022-12-12T13:14:36.454Z,32.9
2022-12-12T13:15:49.409Z,33.1
2022-12-12T13:16:51.861Z,33.0
2022-12-12T13:18:04.881Z,32.9
2022-12-12T13:19:16.989Z,33.1
2022-12-12T13:20:20.086Z,32.9
2022-12-12T13:21:33.764Z,32.9
2022-12-12T13:22:46.842Z,32.7
2022-12-12T13:23:49.102Z,32.6
2022-12-12T13:25:01.870Z,32.9
2022-12-12T13:26:14.012Z,32.9
2022-12-12T13:27:26.840Z,32.9
2022-12-12T13:28:29.014Z,32.6
2022-12-12T13:29:42.357Z,32.6
2022-12-12T13:30:54.485Z,32.7
2022-12-12T13:31:57.857Z,32.8
2022-12-12T13:33:09.958Z,32.6
2022-12-12T13:34:22.884Z,32.6
2022-12-12T13:35:34.962Z,32.6
2022-12-12T13:36:37.882Z,32.6
2022-12-12T13:37:49.962Z,32.6
2022-12-12T13:39:02.842Z,32.5
2022-12-12T13:40:05.061Z,32.5
2022-12-12T13:41:17.905Z,32.6
2022-12-12T13:42:29.988Z,32.6
2022-12-12T13:43:42.871Z,32.4
2022-12-12T13:44:45.115Z,32.5
2022-12-12T13:45:57.934Z,32.3
2022-12-12T13:47:09.988Z,32.3
2022-12-12T13:48:22.900Z,32.3
2022-12-12T13:49:25.104Z,32.0
2022-12-12T13:50:37.870Z,32.1
2022-12-12T13:51:49.929Z,31.7
2022-12-12T13:52:52.874Z,31.8
2022-12-12T13:54:10.210Z,32.0
2022-12-12T13:55:15.912Z,31.9
2022-12-12T13:56:27.958Z,32.0
2022-12-12T13:57:40.868Z,31.9
2022-12-12T13:58:43.059Z,31.8
2022-12-12T13:59:55.874Z,31.8
2022-12-12T14:01:10.420Z,31.9
2022-12-12T14:02:13.948Z,31.8
2022-12-12T14:03:28.796Z,31.7
2022-12-12T14:04:31.862Z,31.8
2022-12-12T14:05:43.926Z,31.8
2022-12-12T14:06:56.909Z,31.8
2022-12-12T14:07:59.111Z,31.8
2022-12-12T14:09:11.887Z,31.8
2022-12-12T14:10:23.946Z,31.7
2022-12-12T14:11:36.901Z,31.8
2022-12-12T14:12:39.114Z,31.7
2022-12-12T14:13:51.917Z,31.8
2022-12-12T14:15:04.112Z,31.8
2022-12-12T14:16:16.937Z,32.0
2022-12-12T14:17:19.184Z,31.9
2022-12-12T14:18:31.952Z,31.9
2022-12-12T14:19:43.885Z,32.0
2022-12-12T14:20:46.905Z,31.9
2022-12-12T14:21:58.985Z,31.8
2022-12-12T14:23:11.904Z,31.8
2022-12-12T14:24:23.923Z,31.9
2022-12-12T14:25:26.994Z,31.8
2022-12-12T14:26:39.080Z,31.9
2022-12-12T14:27:51.917Z,31.8
2022-12-12T14:28:53.947Z,31.8
2022-12-12T14:30:06.408Z,31.8
2022-12-12T14:31:18.453Z,31.8
2022-12-12T14:32:31.410Z,31.9
2022-12-12T14:33:33.567Z,31.8
2022-12-12T14:34:46.370Z,31.8
2022-12-12T14:35:58.377Z,31.8
2022-12-12T14:37:11.422Z,31.9
2022-12-12T14:38:13.605Z,31.9
2022-12-12T14:39:26.873Z,31.9
2022-12-12T14:40:38.964Z,31.8
2022-12-12T14:41:51.928Z,31.8
2022-12-12T14:43:21.288Z,31.9
2022-12-12T14:44:38.097Z,31.9
2022-12-12T14:45:11.778Z,31.8
2022-12-12T14:46:23.796Z,31.8
2022-12-12T14:47:36.936Z,31.8
2022-12-12T14:48:49.044Z,31.8
2022-12-12T14:49:51.930Z,31.8
2022-12-12T14:51:04.003Z,31.8
2022-12-12T14:52:16.897Z,31.9
2022-12-12T14:53:29.006Z,31.8
2022-12-12T14:54:31.902Z,31.9
2022-12-12T14:55:43.934Z,32.0
2022-12-12T14:56:56.889Z,32.0
2022-12-12T14:57:59.078Z,32.0
2022-12-12T14:59:11.928Z,32.1
2022-12-12T15:00:24.040Z,32.1
2022-12-12T15:01:36.902Z,32.0
2022-12-12T15:02:39.355Z,32.0
2022-12-12T15:03:52.470Z,32.1
2022-12-12T15:05:05.152Z,32.2
2022-12-12T15:06:08.400Z,32.3
2022-12-12T15:07:20.542Z,32.4
2022-12-12T15:08:33.460Z,32.4
2022-12-12T15:09:45.659Z,32.5
2022-12-12T15:10:48.969Z,32.5
2022-12-12T15:12:01.097Z,32.5
2022-12-12T15:13:13.932Z,32.7
2022-12-12T15:14:16.237Z,32.8
2022-12-12T15:15:29.400Z,32.8
2022-12-12T15:16:47.476Z,32.9
2022-12-12T15:17:51.927Z,32.9
2022-12-12T15:19:04.039Z,33.0
2022-12-12T15:20:07.161Z,33.2
2022-12-12T15:21:19.345Z,33.2
2022-12-12T15:22:32.567Z,33.3
2022-12-12T15:23:34.828Z,33.3
2022-12-12T15:24:47.939Z,33.4
2022-12-12T15:26:00.145Z,33.5
2022-12-12T15:27:12.895Z,33.6
2022-12-12T15:28:15.183Z,33.7
2022-12-12T15:29:28.432Z,33.7
2022-12-12T15:30:40.603Z,33.8
2022-12-12T15:31:53.474Z,33.9
2022-12-12T15:32:55.865Z,34.0